Time;durP1;ratioP1;P1;durP2;ratioP2;P2;SDS_P1;SDS_P2;PMS_P1;PMS_P2;Temp;Humidity;BMP_temperature;BMP_pressure;BME280_temperature;BME280_humidity;BME280_pressure;Samples;Min_cycle;Max_cycle;Signal;HPM_P1;HPM_P2
2024/02/27 00:02:34;;;;;;;;;;;;;;;11.06;60.56;99567.50;5031885;28;19979;-82
2024/02/27 00:04:59;;;;;;;;;;;;;;;11.10;60.21;99568.78;5030814;28;19917;-82
2024/02/27 00:07:25;;;;;;;;;;;;;;;11.04;59.99;99563.41;5047323;28;19995;-83
2024/02/27 00:09:51;;;;;;;;;;;;;;;11.01;60.62;99571.69;5031729;28;19916;-83
2024/02/27 00:12:16;;;;;;;;;;;;;;;11.01;60.52;99579.59;5031936;28;20004;-83
2024/02/27 00:14:42;;;;;;;;;;;;;;;10.98;60.54;99585.25;5031811;28;19917;-83
2024/02/27 00:17:07;;;;;;;;;;;;;;;10.93;60.79;99577.84;5032075;28;19925;-83
2024/02/27 00:19:32;;;;;;;;;;;;;;;10.94;60.45;99590.06;5047220;28;20457;-83
2024/02/27 00:21:58;;;;;;;;;;;;;;;10.80;61.29;99583.75;5031941;28;19920;-82
2024/02/27 00:24:23;;;;;;;;;;;;;;;10.77;61.50;99584.13;5030417;28;20291;-82
2024/02/27 00:26:48;;;;;;;;;;;;;;;10.81;60.81;99580.13;5031973;28;20374;-82
2024/02/27 00:29:13;;;;;;;;;;;;;;;10.87;60.92;99578.56;5031518;28;19921;-82
2024/02/27 00:31:39;;;;;;;;;;;;;;;10.87;61.07;99583.88;5030558;28;19913;-82
2024/02/27 00:34:04;;;;;;;;;;;;;;;10.91;60.57;99589.59;5031654;28;20375;-82
2024/02/27 00:36:29;;;;;;;;;;;;;;;10.93;60.66;99590.25;5031489;28;19913;-82
2024/02/27 00:38:55;;;;;;;;;;;;;;;10.93;60.61;99577.84;5031531;28;19919;-82
2024/02/27 00:41:20;;;;;;;;;;;;;;;10.93;60.89;99588.44;5047053;28;19983;-83
2024/02/27 00:43:45;;;;;;;;;;;;;;;10.95;60.74;99582.97;5046739;28;19917;-83
2024/02/27 00:46:11;;;;;;;;;;;;;;;10.95;60.18;99590.88;5046729;28;19916;-82
2024/02/27 00:48:37;;;;;;;;;;;;;;;10.89;61.22;99596.88;5031503;28;19913;-83
2024/02/27 00:51:02;;;;;;;;;;;;;;;10.85;61.66;99587.69;5031338;28;19917;-82
2024/02/27 00:53:27;;;;;;;;;;;;;;;10.75;61.13;99588.75;5031537;28;20449;-82
2024/02/27 00:55:53;;;;;;;;;;;;;;;10.68;62.27;99597.56;5031420;28;19913;-83
2024/02/27 00:58:18;;;;;;;;;;;;;;;10.67;60.90;99595.91;5031365;28;19953;-83
2024/02/27 01:00:43;;;;;;;;;;;;;;;10.63;61.35;99595.44;5031234;28;20000;-83
2024/02/27 01:03:09;;;;;;;;;;;;;;;10.59;61.93;99596.81;5031198;28;20428;-83
2024/02/27 01:05:34;;;;;;;;;;;;;;;10.58;61.76;99599.63;5031251;28;19965;-83
2024/02/27 01:07:59;;;;;;;;;;;;;;;10.54;61.58;99601.78;5030038;28;20283;-83
2024/02/27 01:10:25;;;;;;;;;;;;;;;10.49;62.21;99602.31;5031187;28;20366;-83
2024/02/27 01:12:50;;;;;;;;;;;;;;;10.43;61.72;99597.75;5031311;28;19913;-83
2024/02/27 01:15:15;;;;;;;;;;;;;;;10.43;61.41;99591.66;5046578;28;19921;-83
2024/02/27 01:17:41;;;;;;;;;;;;;;;10.46;61.63;99586.84;5046493;28;19916;-83
2024/02/27 01:20:06;;;;;;;;;;;;;;;10.44;61.65;99586.19;5046433;28;19965;-81
2024/02/27 01:22:33;;;;;;;;;;;;;;;10.47;61.22;99595.56;5031051;28;20347;-83
2024/02/27 01:24:59;;;;;;;;;;;;;;;10.45;61.39;99593.09;5031018;28;19913;-83
2024/02/27 01:27:24;;;;;;;;;;;;;;;10.40;62.12;99603.38;5033559;28;19917;-83
2024/02/27 01:29:50;;;;;;;;;;;;;;;10.29;62.38;99593.19;5034960;28;19919;-82
2024/02/27 01:32:15;;;;;;;;;;;;;;;10.27;62.90;99591.72;5034797;28;19941;-83
2024/02/27 01:34:40;;;;;;;;;;;;;;;10.30;62.03;99594.84;5033364;28;20333;-82
2024/02/27 01:37:06;;;;;;;;;;;;;;;10.35;61.69;99595.13;5033420;28;20356;-82
2024/02/27 01:39:31;;;;;;;;;;;;;;;10.33;63.15;99594.47;5034653;28;19913;-83
2024/02/27 01:41:56;;;;;;;;;;;;;;;10.31;62.51;99593.00;5034506;28;20378;-82
2024/02/27 01:44:21;;;;;;;;;;;;;;;10.21;62.39;99598.53;5033191;28;19913;-83
2024/02/27 01:46:47;;;;;;;;;;;;;;;10.17;63.03;99597.19;5033128;28;19924;-82
2024/02/27 01:49:13;;;;;;;;;;;;;;;10.16;62.65;99593.72;5034489;28;19913;-83
2024/02/27 01:51:39;;;;;;;;;;;;;;;10.19;62.80;99603.94;5049800;28;19952;-83
2024/02/27 01:54:04;;;;;;;;;;;;;;;10.18;62.25;99604.94;5033280;28;19913;-83
2024/02/27 01:56:30;;;;;;;;;;;;;;;10.18;61.81;99598.84;5033095;28;19921;-83
2024/02/27 01:58:56;;;;;;;;;;;;;;;10.12;62.53;99610.91;5049481;28;20123;-83
2024/02/27 02:01:22;;;;;;;;;;;;;;;10.15;62.50;99613.19;5049416;28;19921;-83
2024/02/27 02:03:50;;;;;;;;;;;;;;;10.12;63.23;99608.28;5049588;28;19913;-84
2024/02/27 02:06:16;;;;;;;;;;;;;;;10.16;63.49;99611.38;5034090;28;20031;-82
2024/02/27 02:08:41;;;;;;;;;;;;;;;10.17;62.66;99602.47;5034314;28;19960;-83
2024/02/27 02:11:07;;;;;;;;;;;;;;;10.19;62.56;99609.22;5034267;28;20030;-83
2024/02/27 02:13:33;;;;;;;;;;;;;;;10.22;63.26;99612.53;5049389;28;19913;-82
2024/02/27 02:15:58;;;;;;;;;;;;;;;10.22;62.89;99607.25;5034091;28;19920;-83
2024/02/27 02:18:24;;;;;;;;;;;;;;;10.16;63.59;99616.66;5033744;28;20414;-83
2024/02/27 02:20:49;;;;;;;;;;;;;;;10.18;62.21;99612.03;5049064;28;19953;-83
2024/02/27 02:23:14;;;;;;;;;;;;;;;10.19;62.62;99606.56;5032442;28;19913;-83
2024/02/27 02:25:40;;;;;;;;;;;;;;;10.18;62.96;99615.50;5033617;28;19917;-82
2024/02/27 02:28:05;;;;;;;;;;;;;;;10.17;62.16;99618.31;5034169;28;19920;-83
2024/02/27 02:30:31;;;;;;;;;;;;;;;10.12;62.89;99610.91;5034145;28;19924;-83
2024/02/27 02:32:56;;;;;;;;;;;;;;;10.08;62.66;99609.63;5033745;28;20378;-83
2024/02/27 02:35:22;;;;;;;;;;;;;;;10.07;62.94;99612.41;5032217;28;19913;-83
2024/02/27 02:37:48;;;;;;;;;;;;;;;10.05;62.70;99619.69;5032594;28;19919;-82
2024/02/27 02:40:17;;;;;;;;;;;;;;;10.06;62.81;99619.50;5033676;28;19914;-82
2024/02/27 02:42:42;;;;;;;;;;;;;;;10.03;62.52;99617.22;5032314;28;20004;-83
2024/02/27 02:45:08;;;;;;;;;;;;;;;10.03;63.10;99622.50;5032032;28;20007;-83
2024/02/27 02:47:33;;;;;;;;;;;;;;;10.03;62.95;99622.50;5033410;28;19948;-83
2024/02/27 02:49:58;;;;;;;;;;;;;;;10.08;62.34;99627.25;5033341;28;19919;-83
2024/02/27 02:52:23;;;;;;;;;;;;;;;10.08;62.68;99617.53;5032083;28;19920;-83
2024/02/27 02:54:49;;;;;;;;;;;;;;;10.07;61.87;99631.72;5032023;28;19921;-82
2024/02/27 02:57:15;;;;;;;;;;;;;;;10.07;62.00;99629.06;5033164;28;19913;-83
2024/02/27 02:59:41;;;;;;;;;;;;;;;10.05;62.62;99628.41;5033122;28;20290;-83
2024/02/27 03:02:06;;;;;;;;;;;;;;;10.03;62.68;99633.03;5048223;28;19932;-83
2024/02/27 03:04:31;;;;;;;;;;;;;;;10.05;62.36;99641.63;5048776;28;19913;-83
2024/02/27 03:06:57;;;;;;;;;;;;;;;10.03;62.47;99645.41;5031652;28;19924;-84
2024/02/27 03:09:22;;;;;;;;;;;;;;;9.98;62.32;99643.28;5033133;28;19913;-83
2024/02/27 03:11:49;;;;;;;;;;;;;;;9.96;62.63;99645.28;5033097;28;19914;-83
2024/02/27 03:14:15;;;;;;;;;;;;;;;9.98;62.52;99645.09;5031525;28;19912;-83
2024/02/27 03:16:40;;;;;;;;;;;;;;;9.92;62.50;99646.63;5032628;28;19913;-83
2024/02/27 03:19:05;;;;;;;;;;;;;;;9.88;63.10;99640.03;5047969;28;20429;-84
2024/02/27 03:21:32;;;;;;;;;;;;;;;9.86;62.67;99642.84;5031352;28;19921;-83
2024/02/27 03:23:57;;;;;;;;;;;;;;;9.86;62.62;99647.31;5032644;28;19935;-83
2024/02/27 03:26:23;;;;;;;;;;;;;;;9.85;62.26;99643.84;5032655;28;20394;-83
2024/02/27 03:28:48;;;;;;;;;;;;;;;9.81;63.16;99647.00;5031626;28;19913;-83
2024/02/27 03:31:13;;;;;;;;;;;;;;;9.84;62.38;99641.38;5032609;28;19917;-84
2024/02/27 03:33:38;;;;;;;;;;;;;;;9.85;62.51;99646.47;5032512;28;19944;-83
2024/02/27 03:36:04;;;;;;;;;;;;;;;9.84;62.65;99647.47;5032716;28;19982;-83
2024/02/27 03:38:31;;;;;;;;;;;;;;;9.84;62.36;99647.47;5032547;28;19936;-83
2024/02/27 03:40:56;;;;;;;;;;;;;;;9.84;62.46;99642.19;5032369;28;20396;-84
2024/02/27 03:43:21;;;;;;;;;;;;;;;9.81;62.71;99647.81;5030996;28;20012;-83
2024/02/27 03:45:47;;;;;;;;;;;;;;;9.79;63.12;99652.44;5030928;28;19917;-84
2024/02/27 03:48:12;;;;;;;;;;;;;;;9.82;62.31;99654.72;5030997;28;19924;-83
2024/02/27 03:50:37;;;;;;;;;;;;;;;9.82;62.45;99656.53;5030497;28;19913;-84
2024/02/27 03:53:02;;;;;;;;;;;;;;;9.81;62.30;99654.91;5047428;28;19980;-83
2024/02/27 03:55:28;;;;;;;;;;;;;;;9.76;62.64;99651.94;5047268;28;19978;-83
2024/02/27 03:57:53;;;;;;;;;;;;;;;9.71;63.00;99654.28;5047309;28;19913;-83
2024/02/27 04:00:18;;;;;;;;;;;;;;;9.65;62.65;99650.47;5031940;28;19920;-83
2024/02/27 04:02:44;;;;;;;;;;;;;;;9.64;62.62;99659.38;5031988;28;20294;-83
2024/02/27 04:05:09;;;;;;;;;;;;;;;9.51;63.10;99661.72;5030523;28;19917;-83
2024/02/27 04:07:34;;;;;;;;;;;;;;;9.41;63.57;99654.00;5031895;28;19913;-83
2024/02/27 04:10:00;;;;;;;;;;;;;;;9.25;64.27;99661.94;5047378;28;19948;-83
2024/02/27 04:12:25;;;;;;;;;;;;;;;9.23;63.77;99656.81;5030731;28;19913;-84
2024/02/27 04:14:50;;;;;;;;;;;;;;;9.27;64.30;99659.94;5032044;28;19917;-84
2024/02/27 04:17:16;;;;;;;;;;;;;;;9.31;63.85;99655.16;5047209;28;19917;-83
2024/02/27 04:19:41;;;;;;;;;;;;;;;9.27;63.86;99657.31;5030416;28;19975;-83
2024/02/27 04:22:06;;;;;;;;;;;;;;;9.26;63.78;99657.47;5030455;28;19913;-83
2024/02/27 04:24:31;;;;;;;;;;;;;;;9.27;64.07;99662.59;5047471;28;19913;-83
2024/02/27 04:26:57;;;;;;;;;;;;;;;9.23;65.02;99656.81;5031720;28;19917;-82
2024/02/27 04:29:22;;;;;;;;;;;;;;;9.23;64.12;99664.72;5046762;28;19972;-83
2024/02/27 04:31:47;;;;;;;;;;;;;;;9.21;64.33;99664.06;5031417;28;20408;-83
2024/02/27 04:34:12;;;;;;;;;;;;;;;9.23;63.90;99674.44;5030382;28;20351;-83
2024/02/27 04:36:38;;;;;;;;;;;;;;;9.23;64.19;99679.72;5031525;28;20378;-83
2024/02/27 04:39:04;;;;;;;;;;;;;;;9.17;64.63;99683.00;5031613;28;19913;-83
2024/02/27 04:41:29;;;;;;;;;;;;;;;9.20;63.47;99685.31;5031611;28;19913;-82
2024/02/27 04:43:54;;;;;;;;;;;;;;;9.18;64.37;99695.19;5031589;28;20326;-83
2024/02/27 04:46:20;;;;;;;;;;;;;;;9.20;64.28;99690.59;5030229;28;20036;-83
2024/02/27 04:48:45;;;;;;;;;;;;;;;9.23;64.32;99695.53;5031378;28;19920;-83
2024/02/27 04:51:10;;;;;;;;;;;;;;;9.28;63.69;99701.13;5029935;28;19913;-84
2024/02/27 04:53:36;;;;;;;;;;;;;;;9.32;64.11;99699.78;5030133;28;19920;-83
2024/02/27 04:56:02;;;;;;;;;;;;;;;9.32;64.51;99702.44;5031314;28;20017;-83
2024/02/27 04:58:27;;;;;;;;;;;;;;;9.36;63.84;99711.66;5031403;28;19917;-82
2024/02/27 05:00:52;;;;;;;;;;;;;;;9.35;64.83;99715.28;5031477;28;20426;-83
2024/02/27 05:03:18;;;;;;;;;;;;;;;9.33;64.71;99708.53;5035285;28;19974;-83
2024/02/27 05:05:43;;;;;;;;;;;;;;;9.34;64.74;99718.06;5035248;28;19917;-83
2024/02/27 05:08:08;;;;;;;;;;;;;;;9.35;64.19;99707.38;5035289;28;19920;-83
2024/02/27 05:10:33;;;;;;;;;;;;;;;9.37;64.14;99720.38;5035308;28;19979;-83
2024/02/27 05:13:00;;;;;;;;;;;;;;;9.43;63.62;99719.72;5033944;28;19917;-83
2024/02/27 05:15:25;;;;;;;;;;;;;;;9.40;64.54;99733.22;5050400;28;19913;-83
2024/02/27 05:17:50;;;;;;;;;;;;;;;9.38;64.85;99730.75;5033772;28;19954;-83
2024/02/27 05:20:16;;;;;;;;;;;;;;;9.43;64.11;99735.53;5034936;28;19913;-83
2024/02/27 05:22:41;;;;;;;;;;;;;;;9.43;64.07;99727.63;5034902;28;20310;-83
2024/02/27 05:25:07;;;;;;;;;;;;;;;9.44;64.08;99718.72;5034961;28;19913;-83
2024/02/27 05:27:34;;;;;;;;;;;;;;;9.49;64.00;99727.78;5050376;28;19966;-83
2024/02/27 05:30:00;;;;;;;;;;;;;;;9.51;63.80;99733.69;5033701;28;20356;-83
2024/02/27 05:32:25;;;;;;;;;;;;;;;9.49;63.87;99734.84;5035034;28;19913;-83
2024/02/27 05:34:50;;;;;;;;;;;;;;;9.43;63.72;99746.88;5034700;28;19975;-83
2024/02/27 05:37:15;;;;;;;;;;;;;;;9.40;63.84;99738.50;5034594;28;19917;-83
2024/02/27 05:39:41;;;;;;;;;;;;;;;9.43;63.47;99752.16;5033487;28;19913;-84
2024/02/27 05:42:06;;;;;;;;;;;;;;;9.42;63.91;99750.50;5034677;28;20365;-84
2024/02/27 05:44:31;;;;;;;;;;;;;;;9.36;64.22;99753.81;5049990;28;19967;-84
2024/02/27 05:46:56;;;;;;;;;;;;;;;9.33;63.99;99769.13;5050291;28;19963;-84
2024/02/27 05:49:22;;;;;;;;;;;;;;;9.30;63.78;99767.63;5038555;28;19935;-82
2024/02/27 05:51:47;;;;;;;;;;;;;;;9.37;62.88;99773.06;5051293;28;19928;-83
2024/02/27 05:54:12;;;;;;;;;;;;;;;9.30;62.72;99770.28;5050144;28;20007;-83
2024/02/27 05:56:38;;;;;;;;;;;;;;;9.19;63.09;99779.31;5033280;28;19913;-84
2024/02/27 05:59:03;;;;;;;;;;;;;;;9.19;62.37;99783.78;5049604;28;20527;-84
2024/02/27 06:01:28;;;;;;;;;;;;;;;9.13;62.83;99793.16;5049476;28;19925;-82
2024/02/27 06:03:54;;;;;;;;;;;;;;;9.07;63.75;99795.59;5034257;28;20445;-83
2024/02/27 06:06:19;;;;;;;;;;;;;;;9.07;63.35;99800.88;5034196;28;19975;-83
2024/02/27 06:08:44;;;;;;;;;;;;;;;9.07;63.53;99801.69;5032823;28;19952;-83
2024/02/27 06:11:10;;;;;;;;;;;;;;;9.09;64.10;99807.63;5034015;28;20353;-84
2024/02/27 06:13:35;;;;;;;;;;;;;;;9.12;63.63;99809.94;5034085;28;19919;-84
2024/02/27 06:16:00;;;;;;;;;;;;;;;9.19;63.83;99820.66;5033729;28;20296;-83
2024/02/27 06:18:25;;;;;;;;;;;;;;;9.23;63.82;99821.97;5033863;28;19925;-82
2024/02/27 06:23:35;;;;;;;;;;;;;;;9.19;64.28;99831.19;5034414;28;19919;-83
2024/02/27 06:26:00;;;;;;;;;;;;;;;9.16;63.99;99829.69;5032429;28;20004;-86
2024/02/27 06:28:26;;;;;;;;;;;;;;;9.18;63.55;99833.00;5049001;28;19920;-83
2024/02/27 06:30:51;;;;;;;;;;;;;;;9.21;63.32;99827.41;5048676;28;19913;-83
2024/02/27 06:33:16;;;;;;;;;;;;;;;9.23;63.67;99838.59;5047997;28;19979;-83
2024/02/27 06:35:41;;;;;;;;;;;;;;;9.27;63.22;99839.09;5033608;28;19914;-83
2024/02/27 06:38:07;;;;;;;;;;;;;;;9.31;63.67;99834.34;5033596;28;19921;-84
2024/02/27 06:40:32;;;;;;;;;;;;;;;9.33;63.65;99841.09;5033569;28;19956;-83
2024/02/27 06:42:57;;;;;;;;;;;;;;;9.33;63.37;99846.34;5032168;28;20885;-84
2024/02/27 06:45:23;;;;;;;;;;;;;;;9.32;63.55;99849.97;5033497;28;19917;-84
2024/02/27 06:47:48;;;;;;;;;;;;;;;9.28;63.93;99856.56;5033625;28;19917;-84
2024/02/27 06:50:14;;;;;;;;;;;;;;;9.26;63.84;99850.63;5044103;28;20389;-84
2024/02/27 06:52:39;;;;;;;;;;;;;;;9.29;63.43;99860.03;5051829;28;19913;-82
2024/02/27 06:55:05;;;;;;;;;;;;;;;9.31;64.04;99860.69;5051941;28;19913;-84
2024/02/27 06:57:31;;;;;;;;;;;;;;;9.33;63.49;99861.34;5053338;28;19905;-85
2024/02/27 06:59:56;;;;;;;;;;;;;;;9.27;64.08;99869.91;5051566;28;19921;-83
2024/02/27 07:02:21;;;;;;;;;;;;;;;9.35;63.49;99870.75;5032567;28;20024;-84
2024/02/27 07:04:47;;;;;;;;;;;;;;;9.41;63.38;99870.09;5033029;28;19920;-84
2024/02/27 07:07:12;;;;;;;;;;;;;;;9.44;63.18;99875.03;5032958;28;20303;-83
2024/02/27 07:09:38;;;;;;;;;;;;;;;9.49;62.96;99877.19;5031780;28;19920;-84
2024/02/27 07:12:03;;;;;;;;;;;;;;;9.51;63.21;99885.75;5031710;28;19913;-84
2024/02/27 07:14:29;;;;;;;;;;;;;;;9.57;62.98;99887.72;5031812;28;20413;-84
2024/02/27 07:16:54;;;;;;;;;;;;;;;9.63;63.35;99888.91;5031718;28;19913;-84
2024/02/27 07:19:21;;;;;;;;;;;;;;;9.64;63.32;99885.28;5048058;28;20047;-84
2024/02/27 07:21:46;;;;;;;;;;;;;;;9.67;62.73;99884.97;5052814;28;20218;-83
2024/02/27 07:24:12;;;;;;;;;;;;;;;9.66;62.83;99878.03;5052172;28;19920;-84
2024/02/27 07:26:37;;;;;;;;;;;;;;;9.69;63.08;99877.72;5051159;28;19923;-83
2024/02/27 07:29:03;;;;;;;;;;;;;;;9.72;63.32;99874.75;5051334;28;19913;-84
2024/02/27 07:31:28;;;;;;;;;;;;;;;9.77;62.50;99872.44;5052577;28;19912;-84
2024/02/27 07:33:55;;;;;;;;;;;;;;;9.79;63.08;99881.03;5051253;28;19913;-83
2024/02/27 07:36:21;;;;;;;;;;;;;;;9.82;62.52;99883.34;5050540;28;19917;-84
2024/02/27 07:38:46;;;;;;;;;;;;;;;9.88;62.50;99882.66;5051303;28;19917;-84
2024/02/27 07:41:11;;;;;;;;;;;;;;;9.92;62.91;99883.16;5052409;28;19912;-83
2024/02/27 07:43:36;;;;;;;;;;;;;;;9.96;62.29;99884.47;5045879;28;19924;-84
2024/02/27 07:46:02;;;;;;;;;;;;;;;10.04;62.31;99879.19;5032372;28;20378;-83
2024/02/27 07:48:28;;;;;;;;;;;;;;;10.11;62.02;99881.00;5031548;28;19944;-83
2024/02/27 07:50:53;;;;;;;;;;;;;;;10.22;61.47;99887.78;5030971;28;20302;-83
2024/02/27 07:53:18;;;;;;;;;;;;;;;10.24;61.74;99891.06;5032195;28;19920;-83
2024/02/27 07:55:44;;;;;;;;;;;;;;;10.18;61.82;99891.72;5031639;28;20306;-83
2024/02/27 07:58:12;;;;;;;;;;;;;;;10.16;62.26;99891.88;5042273;28;20063;-83
2024/02/27 08:00:37;;;;;;;;;;;;;;;10.19;62.12;99890.72;5047180;28;20398;-84
2024/02/27 08:03:04;;;;;;;;;;;;;;;10.23;62.03;99897.34;5031769;28;19956;-84
2024/02/27 08:05:29;;;;;;;;;;;;;;;10.34;61.78;99898.81;5030530;28;20011;-83
2024/02/27 08:07:55;;;;;;;;;;;;;;;10.41;61.66;99892.72;5031777;28;20381;-84
2024/02/27 08:10:20;;;;;;;;;;;;;;;10.46;61.77;99886.94;5030471;28;19913;-83
2024/02/27 08:12:47;;;;;;;;;;;;;;;10.53;61.74;99893.19;5031324;28;20003;-83
2024/02/27 08:15:12;;;;;;;;;;;;;;;10.61;61.79;99894.97;5030540;28;19928;-83
2024/02/27 08:17:38;;;;;;;;;;;;;;;10.66;61.59;99892.66;5030391;28;19947;-83
2024/02/27 08:20:04;;;;;;;;;;;;;;;10.77;60.94;99897.56;5038358;28;19970;-83
2024/02/27 08:22:30;;;;;;;;;;;;;;;10.89;60.93;99893.56;5042021;28;19918;-83
2024/02/27 08:24:55;;;;;;;;;;;;;;;10.97;60.41;99898.81;5031873;28;19919;-83
2024/02/27 08:27:20;;;;;;;;;;;;;;;10.95;59.92;99902.63;5031533;28;19972;-84
2024/02/27 08:29:46;;;;;;;;;;;;;;;10.98;60.14;99902.28;5036353;28;19925;-84
2024/02/27 08:32:11;;;;;;;;;;;;;;;11.06;60.64;99910.16;5052515;28;20348;-83
2024/02/27 08:34:36;;;;;;;;;;;;;;;11.20;59.15;99911.28;5051278;28;19917;-84
2024/02/27 08:37:01;;;;;;;;;;;;;;;11.14;59.60;99910.94;5045779;28;20442;-82
2024/02/27 08:39:27;;;;;;;;;;;;;;;11.02;59.33;99906.22;5038024;28;19917;-83
2024/02/27 08:41:52;;;;;;;;;;;;;;;11.03;60.44;99913.16;5051151;28;19917;-83
2024/02/27 08:44:18;;;;;;;;;;;;;;;11.12;59.37;99920.03;5050945;28;19912;-84
2024/02/27 08:46:43;;;;;;;;;;;;;;;10.56;59.12;99815.47;5049225;28;19925;-82
2024/02/27 08:49:09;;;;;;;;;;;;;;;11.13;59.93;99911.13;5032158;28;19985;-83
2024/02/27 08:51:34;;;;;;;;;;;;;;;11.21;59.27;99907.66;5029818;28;19913;-83
2024/02/27 08:54:00;;;;;;;;;;;;;;;11.20;59.37;99904.19;5030122;28;19913;-84
2024/02/27 08:56:26;;;;;;;;;;;;;;;11.14;59.63;99912.78;5038335;28;19917;-82
2024/02/27 08:58:51;;;;;;;;;;;;;;;11.26;60.14;99916.69;5038218;28;19929;-83
2024/02/27 09:01:16;;;;;;;;;;;;;;;11.42;59.93;99910.50;5033788;28;19971;-84
2024/02/27 09:03:42;;;;;;;;;;;;;;;11.57;59.87;99923.78;5043114;28;20402;-83
2024/02/27 09:06:09;;;;;;;;;;;;;;;11.62;59.18;99916.16;5050906;28;20408;-83
2024/02/27 09:08:34;;;;;;;;;;;;;;;11.67;59.06;99909.34;5042024;28;20000;-83
2024/02/27 09:11:00;;;;;;;;;;;;;;;11.67;59.30;99913.81;5045684;28;20016;-83
2024/02/27 09:13:25;;;;;;;;;;;;;;;11.68;58.54;99918.09;5050990;28;19913;-84
2024/02/27 09:15:50;;;;;;;;;;;;;;;11.65;59.32;99913.16;5033925;28;19913;-83
2024/02/27 09:18:16;;;;;;;;;;;;;;;11.72;59.26;99919.41;5029811;28;19928;-83
2024/02/27 09:20:43;;;;;;;;;;;;;;;11.73;58.78;99918.41;5036800;28;20394;-82
2024/02/27 09:23:08;;;;;;;;;;;;;;;11.82;58.91;99924.47;5043142;28;19913;-84
2024/02/27 09:25:34;;;;;;;;;;;;;;;11.96;58.47;99913.16;5046149;28;20398;-83
2024/02/27 09:27:59;;;;;;;;;;;;;;;12.07;58.70;99907.44;5049418;28;19919;-83
2024/02/27 09:30:25;;;;;;;;;;;;;;;12.20;58.00;99914.78;5040606;28;19925;-83
2024/02/27 09:32:56;;;;;;;;;;;;;;;12.09;58.08;99916.84;5031725;28;19913;-83
2024/02/27 09:35:21;;;;;;;;;;;;;;;12.22;57.98;99910.94;5035447;28;19909;-83
2024/02/27 09:37:46;;;;;;;;;;;;;;;12.35;58.17;99908.50;5045394;28;19924;-82
2024/02/27 09:40:12;;;;;;;;;;;;;;;12.45;57.67;99904.75;5031168;28;19917;-82
2024/02/27 09:42:38;;;;;;;;;;;;;;;12.55;57.17;99910.63;5030432;28;19913;-83
2024/02/27 09:45:05;;;;;;;;;;;;;;;12.47;57.33;99906.22;5030601;28;20345;-81
2024/02/27 09:47:33;;;;;;;;;;;;;;;12.45;57.31;99899.47;5031540;28;20386;-83
2024/02/27 09:50:00;;;;;;;;;;;;;;;12.51;57.34;99896.91;5036278;28;19913;-83
2024/02/27 09:52:26;;;;;;;;;;;;;;;12.58;57.37;99899.66;5049360;28;20375;-82
2024/02/27 09:54:52;;;;;;;;;;;;;;;12.72;57.19;99883.78;5034342;28;19927;-84
2024/02/27 09:57:17;;;;;;;;;;;;;;;12.86;56.99;99897.22;5033228;28;19995;-83
2024/02/27 09:59:43;;;;;;;;;;;;;;;12.94;56.82;99891.81;5036436;28;20373;-82
2024/02/27 10:02:12;;;;;;;;;;;;;;;13.12;56.76;99894.91;5032264;28;20369;-82
2024/02/27 10:04:38;;;;;;;;;;;;;;;13.18;56.44;99888.06;5043919;28;19923;-83
2024/02/27 10:07:05;;;;;;;;;;;;;;;13.31;56.32;99880.25;5054791;28;19924;-83
2024/02/27 10:09:44;;;;;;;;;;;;;;;13.45;55.19;99876.75;5049351;28;20386;-83
2024/02/27 10:12:10;;;;;;;;;;;;;;;13.57;56.16;99871.78;5038495;28;19913;-83
2024/02/27 10:14:37;;;;;;;;;;;;;;;13.76;55.50;99871.13;5041292;28;20454;-83
2024/02/27 10:17:03;;;;;;;;;;;;;;;13.94;55.41;99874.16;5040363;28;19909;-83
2024/02/27 10:19:32;;;;;;;;;;;;;;;14.02;54.88;99867.88;5048586;28;19970;-83
2024/02/27 10:21:58;;;;;;;;;;;;;;;14.00;54.35;99860.13;5044969;28;19920;-82
2024/02/27 10:24:33;;;;;;;;;;;;;;;14.14;54.54;99860.25;5048997;28;19917;-82
2024/02/27 10:27:02;;;;;;;;;;;;;;;14.42;54.45;99858.41;5049067;28;19928;-83
2024/02/27 10:29:28;;;;;;;;;;;;;;;14.48;53.36;99854.97;5050887;28;19936;-82
2024/02/27 10:31:54;;;;;;;;;;;;;;;14.58;54.00;99849.31;5054674;28;20373;-83
2024/02/27 10:34:21;;;;;;;;;;;;;;;14.67;53.52;99847.31;5051375;28;19919;-82
2024/02/27 10:37:05;;;;;;;;;;;;;;;14.27;53.18;99754.91;5053941;28;19916;-83
2024/02/27 10:39:31;;;;;;;;;;;;;;;14.87;53.22;99842.94;5054532;28;20328;-83
2024/02/27 10:41:58;;;;;;;;;;;;;;;14.96;52.85;99839.09;5046225;28;19919;-82
2024/02/27 10:44:25;;;;;;;;;;;;;;;15.09;52.54;99835.66;5042982;28;19964;-82
2024/02/27 10:46:50;;;;;;;;;;;;;;;15.20;52.74;99829.75;5056631;28;19991;-83
2024/02/27 10:49:16;;;;;;;;;;;;;;;15.32;52.00;99837.97;5051745;28;19917;-83
2024/02/27 10:51:41;;;;;;;;;;;;;;;15.52;52.14;99830.81;5040571;28;19913;-82
2024/02/27 10:54:07;;;;;;;;;;;;;;;15.10;52.22;99744.22;5033214;28;19917;-82
2024/02/27 10:56:32;;;;;;;;;;;;;;;15.81;51.73;99830.50;5041075;28;19965;-83
2024/02/27 10:58:58;;;;;;;;;;;;;;;15.89;51.50;99824.16;5029009;28;19917;-82
2024/02/27 11:01:26;;;;;;;;;;;;;;;15.95;51.37;99811.84;5048458;28;19951;-83
2024/02/27 11:03:52;;;;;;;;;;;;;;;16.01;51.18;99821.69;5053047;28;19917;-81
2024/02/27 11:06:23;;;;;;;;;;;;;;;16.07;48.77;99815.53;5052570;28;19921;-81
2024/02/27 11:08:51;;;;;;;;;;;;;;;16.13;50.89;99818.19;5043571;28;19924;-82
2024/02/27 11:11:17;;;;;;;;;;;;;;;16.11;50.93;99817.56;5039705;28;19924;-82
2024/02/27 11:13:46;;;;;;;;;;;;;;;16.07;50.34;99808.34;5042018;28;20000;-82
2024/02/27 11:16:14;;;;;;;;;;;;;;;16.01;50.37;99805.69;5051712;28;19960;-82
2024/02/27 11:18:40;;;;;;;;;;;;;;;15.97;50.28;99805.28;5052762;28;20406;-83
2024/02/27 11:21:06;;;;;;;;;;;;;;;15.94;50.23;99811.03;5051325;28;19912;-83
2024/02/27 11:23:32;;;;;;;;;;;;;;;15.94;49.82;99811.03;5052753;28;19917;-82
2024/02/27 11:25:57;;;;;;;;;;;;;;;16.03;50.28;99804.47;5065590;28;19931;-82
2024/02/27 11:28:23;;;;;;;;;;;;;;;16.19;49.92;99801.34;5059845;28;20353;-83
2024/02/27 11:30:50;;;;;;;;;;;;;;;16.37;50.14;99797.25;5031581;28;20046;-82
2024/02/27 11:33:18;;;;;;;;;;;;;;;16.38;49.35;99788.22;5050610;28;19924;-82
2024/02/27 11:35:43;;;;;;;;;;;;;;;16.45;49.76;99786.34;5052713;28;19913;-82
2024/02/27 11:38:10;;;;;;;;;;;;;;;16.40;49.84;99780.84;5059557;28;19943;-81
2024/02/27 11:40:52;;;;;;;;;;;;;;;16.53;49.65;99781.63;5036149;28;20436;-81
2024/02/27 11:43:19;;;;;;;;;;;;;;;16.67;49.41;99771.75;5032274;28;19963;-81
2024/02/27 11:45:44;;;;;;;;;;;;;;;16.72;49.80;99781.78;5032319;28;19917;-82
2024/02/27 11:48:09;;;;;;;;;;;;;;;16.72;49.70;99777.25;5046025;28;19920;-81
2024/02/27 11:50:35;;;;;;;;;;;;;;;16.67;49.38;99773.59;5032101;28;20313;-82
2024/02/27 11:53:20;;;;;;;;;;;;;;;16.63;49.95;99775.84;5031068;28;20404;-80
2024/02/27 11:55:53;;;;;;;;;;;;;;;16.50;49.91;99766.03;5030939;28;19905;-81
2024/02/27 11:58:20;;;;;;;;;;;;;;;16.49;50.07;99772.41;5037638;28;19917;-82
2024/02/27 12:00:46;;;;;;;;;;;;;;;16.51;49.96;99774.84;5031342;28;19913;-81
2024/02/27 12:03:11;;;;;;;;;;;;;;;16.52;50.19;99765.84;5044982;28;19978;-81
2024/02/27 12:05:37;;;;;;;;;;;;;;;16.56;50.04;99763.56;5051961;28;19970;-82
2024/02/27 12:08:02;;;;;;;;;;;;;;;16.57;50.21;99757.19;5046787;28;19917;-82
2024/02/27 12:10:28;;;;;;;;;;;;;;;16.55;50.17;99761.94;5047657;28;19917;-82
2024/02/27 12:12:54;;;;;;;;;;;;;;;16.48;50.27;99760.09;5045642;28;19917;-81
2024/02/27 12:15:19;;;;;;;;;;;;;;;16.40;50.24;99755.00;5058089;28;19909;-80
2024/02/27 12:17:45;;;;;;;;;;;;;;;16.34;50.31;99755.00;5062288;28;19952;-81
2024/02/27 12:20:11;;;;;;;;;;;;;;;16.31;50.37;99753.56;5082912;28;19924;-81
2024/02/27 12:22:37;;;;;;;;;;;;;;;16.32;50.32;99757.88;5072258;28;19962;-81
2024/02/27 12:25:03;;;;;;;;;;;;;;;16.28;50.21;99750.50;5070711;28;19912;-81
2024/02/27 12:27:29;;;;;;;;;;;;;;;16.28;50.33;99745.19;5056680;28;19921;-80
2024/02/27 12:29:54;;;;;;;;;;;;;;;16.25;50.57;99745.59;5053015;28;19959;-80
2024/02/27 12:32:20;;;;;;;;;;;;;;;16.24;50.23;99744.78;5035044;28;19921;-80
2024/02/27 12:34:48;;;;;;;;;;;;;;;16.25;50.45;99730.44;5041052;28;19917;-81
2024/02/27 12:37:18;;;;;;;;;;;;;;;16.22;50.17;99733.53;5060684;28;19916;-84
2024/02/27 12:39:45;;;;;;;;;;;;;;;16.27;50.50;99728.38;5069752;28;20401;-82
2024/02/27 12:42:10;;;;;;;;;;;;;;;16.29;50.18;99730.84;5061602;28;19924;-82
2024/02/27 12:44:37;;;;;;;;;;;;;;;16.37;50.32;99736.78;5042718;28;19932;-80
2024/02/27 12:47:02;;;;;;;;;;;;;;;16.35;49.69;99736.16;5050446;28;19929;-80